createdAt,value
2023-05-10T00:01:28.818Z,99346.78
2023-05-10T00:03:55.219Z,99360.19
2023-05-10T00:06:21.918Z,99353.56
2023-05-10T00:08:48.157Z,99356.75
2023-05-10T00:11:14.457Z,99355.09
2023-05-10T00:13:41.116Z,99363.03
2023-05-10T00:16:07.455Z,99364.81
2023-05-10T00:18:33.839Z,99370.47
2023-05-10T00:21:00.356Z,99363.34
2023-05-10T00:23:26.647Z,99354.97
2023-05-10T00:25:52.969Z,99364.69
2023-05-10T00:28:19.318Z,99370.56
2023-05-10T00:30:45.641Z,99369.53
2023-05-10T00:33:12.493Z,99366.88
2023-05-10T00:35:39.140Z,99352.31
2023-05-10T00:38:05.449Z,99369.63
2023-05-10T00:40:31.818Z,99364.53
2023-05-10T00:42:59.153Z,99343.78
2023-05-10T00:45:25.821Z,99381.31
2023-05-10T00:47:55.914Z,99377.16
2023-05-10T00:50:24.176Z,99375.91
2023-05-10T00:52:51.177Z,99380.34
2023-05-10T00:55:17.549Z,99386.47
2023-05-10T00:57:44.211Z,99374.09
2023-05-10T01:00:11.187Z,99376.84
2023-05-10T01:02:37.801Z,99363.94
2023-05-10T01:05:04.709Z,99382.09
2023-05-10T01:07:31.160Z,99384.56
2023-05-10T01:09:58.440Z,99380.22
2023-05-10T01:12:24.831Z,99378.41
2023-05-10T01:14:51.199Z,99380.22
2023-05-10T01:17:17.749Z,99375.66
2023-05-10T01:19:44.071Z,99369.78
2023-05-10T01:22:19.163Z,99381.06
2023-05-10T01:25:16.450Z,99384.75
2023-05-10T01:28:04.940Z,99382.16
2023-05-10T01:30:37.230Z,99383.25
2023-05-10T01:33:15.619Z,99385.25
2023-05-10T01:36:16.795Z,99394.97
2023-05-10T01:38:51.343Z,99385.47
2023-05-10T01:41:20.947Z,99395.34
2023-05-10T01:43:56.263Z,99400.59
2023-05-10T01:46:34.202Z,99402.56
2023-05-10T01:49:04.315Z,99399.13
2023-05-10T01:51:39.968Z,99402.81
2023-05-10T01:54:08.967Z,99408.38
2023-05-10T01:56:36.581Z,99401.97
2023-05-10T01:59:09.308Z,99405.66
2023-05-10T02:01:37.650Z,99399.00
2023-05-10T02:04:05.545Z,99406.69
2023-05-10T02:06:33.963Z,99407.44
2023-05-10T02:09:02.308Z,99402.28
2023-05-10T02:11:30.012Z,99413.53
2023-05-10T02:13:58.153Z,99412.06
2023-05-10T02:16:27.322Z,99416.44
2023-05-10T02:18:55.132Z,99411.84
2023-05-10T02:21:22.536Z,99409.56
2023-05-10T02:23:52.868Z,99407.91
2023-05-10T02:26:23.047Z,99422.66
2023-05-10T02:28:50.308Z,99425.53
2023-05-10T02:31:17.822Z,99421.16
2023-05-10T02:33:46.291Z,99422.88
2023-05-10T02:36:13.683Z,99414.34
2023-05-10T02:38:41.419Z,99419.59
2023-05-10T02:41:10.135Z,99423.66
2023-05-10T02:43:38.510Z,99426.50
2023-05-10T02:46:04.996Z,99413.63
2023-05-10T02:48:31.441Z,99424.63
2023-05-10T02:51:04.940Z,99428.06
2023-05-10T02:53:34.032Z,99432.44
2023-05-10T02:56:05.780Z,99410.88
2023-05-10T02:58:32.275Z,99416.94
2023-05-10T03:00:58.582Z,99418.66
2023-05-10T03:03:24.926Z,99421.47
2023-05-10T03:05:51.217Z,99417.19
2023-05-10T03:08:17.570Z,99425.84
2023-05-10T03:10:56.644Z,99425.06
2023-05-10T03:13:45.050Z,99425.00
2023-05-10T03:16:17.941Z,99414.75
2023-05-10T03:19:07.154Z,99419.97
2023-05-10T03:21:33.967Z,99420.53
2023-05-10T03:24:09.869Z,99412.94
2023-05-10T03:26:37.974Z,99418.34
2023-05-10T03:29:06.351Z,99427.09
2023-05-10T03:31:33.217Z,99439.81
2023-05-10T03:33:59.505Z,99431.03
2023-05-10T03:36:25.785Z,99443.56
2023-05-10T03:38:52.112Z,99440.03
2023-05-10T03:41:18.416Z,99436.75
2023-05-10T03:43:44.730Z,99440.03
2023-05-10T03:46:11.375Z,99435.28
2023-05-10T03:48:37.669Z,99439.66
2023-05-10T03:51:04.148Z,99441.59
2023-05-10T03:53:30.424Z,99436.56
2023-05-10T03:55:56.749Z,99442.69
2023-05-10T03:58:23.137Z,99437.59
2023-05-10T04:00:49.468Z,99427.19
2023-05-10T04:03:15.897Z,99429.00
2023-05-10T04:05:42.239Z,99445.44
2023-05-10T04:08:08.560Z,99434.94
2023-05-10T04:10:34.894Z,99446.13
2023-05-10T04:13:01.258Z,99444.34
2023-05-10T04:15:27.584Z,99445.34
2023-05-10T04:17:54.545Z,99442.69
2023-05-10T04:20:21.004Z,99437.47
2023-05-10T04:22:47.343Z,99451.41
2023-05-10T04:25:13.682Z,99439.88
2023-05-10T04:27:40.072Z,99446.00
2023-05-10T04:30:07.628Z,99462.69
2023-05-10T04:32:33.962Z,99460.88
2023-05-10T04:35:00.236Z,99459.09
2023-05-10T04:37:26.535Z,99466.22
2023-05-10T04:39:52.906Z,99463.63
2023-05-10T04:42:19.197Z,99466.16
2023-05-10T04:44:45.521Z,99469.56
2023-05-10T04:47:13.317Z,99472.22
2023-05-10T04:49:39.588Z,99471.53
2023-05-10T04:52:05.863Z,99475.84
2023-05-10T04:54:32.239Z,99471.47
2023-05-10T04:56:58.518Z,99486.44
2023-05-10T04:59:24.842Z,99473.50
2023-05-10T05:01:51.197Z,99481.34
2023-05-10T05:04:17.725Z,99489.88
2023-05-10T05:06:44.063Z,99491.53
2023-05-10T05:09:11.112Z,99491.47
2023-05-10T05:11:37.460Z,99495.78
2023-05-10T05:14:03.938Z,99491.94
2023-05-10T05:16:31.827Z,99497.56
2023-05-10T05:18:58.206Z,99489.88
2023-05-10T05:21:25.989Z,99492.38
2023-05-10T05:23:52.258Z,99498.38
2023-05-10T05:26:18.604Z,99506.91
2023-05-10T05:28:44.928Z,99502.44
2023-05-10T05:31:11.352Z,99489.47
2023-05-10T05:33:38.140Z,99504.06
2023-05-10T05:36:05.818Z,99506.75
2023-05-10T05:38:32.372Z,99500.06
2023-05-10T05:40:58.758Z,99511.34
2023-05-10T05:43:25.605Z,99511.34
2023-05-10T05:45:54.557Z,99511.28
2023-05-10T05:48:21.195Z,99509.16
2023-05-10T05:50:47.547Z,99514.72
2023-05-10T05:53:13.830Z,99509.09
2023-05-10T05:55:40.162Z,99515.00
2023-05-10T05:58:06.632Z,99514.91
2023-05-10T06:00:33.049Z,99514.66
2023-05-10T06:02:59.452Z,99527.47
2023-05-10T06:05:25.840Z,99522.81
2023-05-10T06:07:52.294Z,99529.09
2023-05-10T06:10:21.344Z,99522.13
2023-05-10T06:12:50.648Z,99531.69
2023-05-10T06:15:18.974Z,99537.63
2023-05-10T06:17:45.626Z,99534.00
2023-05-10T06:20:15.808Z,99540.91
2023-05-10T06:22:44.959Z,99548.75
2023-05-10T06:25:12.214Z,99559.19
2023-05-10T06:27:38.614Z,99555.75
2023-05-10T06:30:12.769Z,99556.28
2023-05-10T06:32:39.927Z,99556.91
2023-05-10T06:35:06.845Z,99545.28
2023-05-10T06:37:33.116Z,99560.59
2023-05-10T06:39:59.420Z,99552.97
2023-05-10T06:42:26.435Z,99560.69
2023-05-10T06:44:52.859Z,99561.38
2023-05-10T06:47:19.491Z,99554.38
2023-05-10T06:49:45.912Z,99565.69
2023-05-10T06:52:12.307Z,99560.88
2023-05-10T06:54:38.789Z,99559.69
2023-05-10T06:57:10.810Z,99563.34
2023-05-10T06:59:42.656Z,99572.91
2023-05-10T07:02:09.061Z,99571.69
2023-05-10T07:04:35.409Z,99571.53
2023-05-10T07:07:01.748Z,99568.00
2023-05-10T07:09:28.020Z,99570.84
2023-05-10T07:11:54.406Z,99567.03
2023-05-10T07:14:20.689Z,99565.41
2023-05-10T07:16:47.087Z,99562.22
2023-05-10T07:19:13.408Z,99569.97
2023-05-10T07:21:41.339Z,99565.81
2023-05-10T07:24:07.639Z,99578.13
2023-05-10T07:26:34.029Z,99581.78
2023-05-10T07:29:00.367Z,99579.88
2023-05-10T07:31:26.695Z,99575.31
2023-05-10T07:33:53.056Z,99578.53
2023-05-10T07:36:19.378Z,99564.22
2023-05-10T07:38:45.785Z,99581.63
2023-05-10T07:41:12.917Z,99577.56
2023-05-10T07:43:39.214Z,99586.09
2023-05-10T07:46:06.203Z,99583.84
2023-05-10T07:48:32.627Z,99577.47
2023-05-10T07:50:58.948Z,99577.25
2023-05-10T07:53:27.140Z,99589.91
2023-05-10T07:55:59.767Z,99582.91
2023-05-10T07:58:26.216Z,99577.94
2023-05-10T08:00:52.484Z,99592.84
2023-05-10T08:03:18.881Z,99587.94
2023-05-10T08:05:45.204Z,99588.03
2023-05-10T08:08:11.646Z,99591.94
2023-05-10T08:10:38.092Z,99573.66
2023-05-10T08:13:04.409Z,99593.50
2023-05-10T08:15:30.704Z,99594.00
2023-05-10T08:17:57.031Z,99592.47
2023-05-10T08:20:23.444Z,99581.53
2023-05-10T08:22:51.910Z,99601.44
2023-05-10T08:25:18.696Z,99598.78
2023-05-10T08:27:45.671Z,99597.84
2023-05-10T08:30:12.981Z,99608.25
2023-05-10T08:32:39.309Z,99607.81
2023-05-10T08:35:06.169Z,99613.69
2023-05-10T08:37:33.850Z,99621.50
2023-05-10T08:40:00.236Z,99616.88
2023-05-10T08:42:31.121Z,99614.19
2023-05-10T08:44:58.619Z,99607.13
2023-05-10T08:47:26.217Z,99609.19
2023-05-10T08:49:53.483Z,99623.06
2023-05-10T08:52:20.749Z,99618.56
2023-05-10T08:54:47.632Z,99620.13
2023-05-10T08:57:14.060Z,99622.09
2023-05-10T08:59:40.792Z,99619.34
2023-05-10T09:02:08.207Z,99613.00
2023-05-10T09:04:34.660Z,99625.34
2023-05-10T09:07:02.019Z,99623.97
2023-05-10T09:09:28.803Z,99612.75
2023-05-10T09:11:55.476Z,99628.09
2023-05-10T09:14:24.134Z,99618.88
2023-05-10T09:16:50.508Z,99620.44
2023-05-10T09:19:16.829Z,99615.75
2023-05-10T09:21:43.170Z,99618.19
2023-05-10T09:24:10.067Z,99618.16
2023-05-10T09:26:46.279Z,99619.91
2023-05-10T09:29:13.432Z,99622.97
2023-05-10T09:31:47.265Z,99617.28
2023-05-10T09:34:18.019Z,99608.81
2023-05-10T09:36:58.513Z,99622.09
2023-05-10T09:39:35.769Z,99613.22
2023-05-10T09:42:11.438Z,99643.47
2023-05-10T09:44:38.945Z,99630.53
2023-05-10T09:47:05.531Z,99643.69
2023-05-10T09:49:31.998Z,99637.88
2023-05-10T09:52:02.483Z,99637.56
2023-05-10T09:54:29.006Z,99643.53
2023-05-10T09:56:55.525Z,99644.91
2023-05-10T09:59:22.079Z,99649.16
2023-05-10T10:01:52.225Z,99657.84
2023-05-10T10:04:18.648Z,99650.34
2023-05-10T10:06:45.569Z,99656.03
2023-05-10T10:09:12.079Z,99651.63
2023-05-10T10:11:39.202Z,99655.06
2023-05-10T10:14:06.374Z,99661.28
2023-05-10T10:16:33.595Z,99653.38
2023-05-10T10:19:00.075Z,99660.34
2023-05-10T10:21:26.516Z,99663.19
2023-05-10T10:23:53.926Z,99653.44
2023-05-10T10:26:21.908Z,99652.25
2023-05-10T10:29:25.649Z,99661.63
2023-05-10T10:32:02.451Z,99662.66
2023-05-10T10:34:32.575Z,99657.00
2023-05-10T10:37:05.553Z,99652.38
2023-05-10T10:39:32.134Z,99658.47
2023-05-10T10:41:59.617Z,99659.66
2023-05-10T10:44:34.744Z,99658.59
2023-05-10T10:47:12.642Z,99661.72
2023-05-10T10:49:52.173Z,99655.19
2023-05-10T10:52:24.764Z,99664.19
2023-05-10T10:54:52.502Z,99663.97
2023-05-10T10:57:20.690Z,99660.00
2023-05-10T10:59:47.281Z,99674.22
2023-05-10T11:02:54.875Z,99671.91
2023-05-10T11:05:37.793Z,99682.81
2023-05-10T11:08:28.715Z,99676.28
2023-05-10T11:11:01.198Z,99674.69
2023-05-10T11:13:43.470Z,99683.72
2023-05-10T11:16:26.241Z,99691.50
2023-05-10T11:19:08.625Z,99677.13
2023-05-10T11:21:52.238Z,99686.34
2023-05-10T11:24:21.312Z,99687.19
2023-05-10T11:26:52.096Z,99689.88
2023-05-10T11:29:18.558Z,99691.56
2023-05-10T11:31:46.207Z,99684.84
2023-05-10T11:34:13.546Z,99684.47
2023-05-10T11:36:39.905Z,99688.13
2023-05-10T11:39:06.793Z,99681.84
2023-05-10T11:41:33.413Z,99688.34
2023-05-10T11:43:59.901Z,99684.59
2023-05-10T11:46:29.409Z,99681.78
2023-05-10T11:49:02.863Z,99678.44
2023-05-10T11:51:29.359Z,99671.22
2023-05-10T11:53:56.472Z,99669.22
2023-05-10T11:56:24.280Z,99661.94
2023-05-10T11:58:56.686Z,99669.00
2023-05-10T12:01:24.188Z,99664.84
2023-05-10T12:03:52.485Z,99663.84
2023-05-10T12:06:22.284Z,99659.94
2023-05-10T12:08:53.330Z,99666.84
2023-05-10T12:11:20.233Z,99654.22
2023-05-10T12:13:50.791Z,99662.66
2023-05-10T12:16:21.981Z,99655.03
2023-05-10T12:18:56.674Z,99658.56
2023-05-10T12:21:23.468Z,99670.91
2023-05-10T12:23:53.535Z,99673.03
2023-05-10T12:26:23.838Z,99680.47
2023-05-10T12:28:50.387Z,99672.59
2023-05-10T12:31:16.794Z,99669.47
2023-05-10T12:33:44.587Z,99668.38
2023-05-10T12:36:12.835Z,99675.28
2023-05-10T12:38:43.087Z,99672.94
2023-05-10T12:41:11.809Z,99686.47
2023-05-10T12:43:38.725Z,99675.69
2023-05-10T12:46:06.675Z,99672.63
2023-05-10T12:48:34.814Z,99676.66
2023-05-10T12:51:02.407Z,99677.19
2023-05-10T12:53:28.760Z,99686.66
2023-05-10T12:55:55.320Z,99682.69
2023-05-10T13:00:54.530Z,99668.03
2023-05-10T13:03:20.925Z,99692.44
2023-05-10T13:05:47.251Z,99679.84
2023-05-10T13:08:13.534Z,99686.78
2023-05-10T13:10:39.962Z,99688.63
2023-05-10T13:13:06.291Z,99686.59
2023-05-10T13:15:32.517Z,99681.63
2023-05-10T13:17:58.917Z,99686.97
2023-05-10T13:20:26.385Z,99692.50
2023-05-10T13:22:52.690Z,99687.97
2023-05-10T13:25:18.947Z,99688.41
2023-05-10T13:27:45.400Z,99694.81
2023-05-10T13:30:14.726Z,99692.44
2023-05-10T13:32:41.141Z,99685.47
2023-05-10T13:35:07.596Z,99693.28
2023-05-10T13:37:36.437Z,99686.91
2023-05-10T13:40:02.873Z,99684.50
2023-05-10T13:42:29.362Z,99689.19
2023-05-10T13:44:55.712Z,99679.66
2023-05-10T13:47:23.206Z,99687.56
2023-05-10T13:49:49.673Z,99684.72
2023-05-10T13:52:16.040Z,99683.41
2023-05-10T13:54:42.458Z,99677.41
2023-05-10T13:57:08.846Z,99684.34
2023-05-10T13:59:35.082Z,99689.06
2023-05-10T14:02:04.780Z,99687.44
2023-05-10T14:04:31.364Z,99681.22
2023-05-10T14:06:57.692Z,99690.81
2023-05-10T14:09:23.989Z,99688.00
2023-05-10T14:11:50.266Z,99675.16
2023-05-10T14:14:16.576Z,99681.19
2023-05-10T14:16:44.703Z,99685.47
2023-05-10T14:19:12.087Z,99674.88
2023-05-10T14:21:38.988Z,99665.41
2023-05-10T14:24:05.819Z,99671.72
2023-05-10T14:26:32.325Z,99680.97
2023-05-10T14:28:58.672Z,99684.78
2023-05-10T14:31:26.508Z,99684.22
2023-05-10T14:33:52.828Z,99685.16
2023-05-10T14:36:19.289Z,99674.31
2023-05-10T14:38:45.711Z,99681.56
2023-05-10T14:41:15.503Z,99677.03
2023-05-10T14:43:42.218Z,99683.41
2023-05-10T14:46:09.578Z,99681.97
2023-05-10T14:48:36.233Z,99673.47
2023-05-10T14:51:02.818Z,99672.19
2023-05-10T14:53:29.095Z,99673.16
2023-05-10T14:55:55.710Z,99675.41
2023-05-10T14:58:22.433Z,99671.53
2023-05-10T15:00:48.973Z,99666.13
2023-05-10T15:03:16.479Z,99668.09
2023-05-10T15:05:43.518Z,99668.84
2023-05-10T15:08:10.247Z,99677.34
2023-05-10T15:10:37.657Z,99667.25
2023-05-10T15:13:05.241Z,99669.63
2023-05-10T15:15:32.099Z,99670.88
2023-05-10T15:17:58.509Z,99668.63
2023-05-10T15:20:24.920Z,99664.88
2023-05-10T15:22:51.706Z,99669.44
2023-05-10T15:25:18.306Z,99674.50
2023-05-10T15:27:44.772Z,99674.69
2023-05-10T15:30:11.455Z,99668.47
2023-05-10T15:32:38.250Z,99670.94
2023-05-10T15:35:04.991Z,99681.31
2023-05-10T15:37:31.308Z,99685.28
2023-05-10T15:40:04.140Z,99693.88
2023-05-10T15:42:31.538Z,99684.13
2023-05-10T15:44:58.080Z,99689.28
2023-05-10T15:47:24.799Z,99690.91
2023-05-10T15:49:51.064Z,99687.75
2023-05-10T15:52:18.652Z,99676.91
2023-05-10T15:54:44.942Z,99690.44
2023-05-10T15:57:11.756Z,99688.50
2023-05-10T15:59:38.084Z,99697.16
2023-05-10T16:02:04.483Z,99697.31
2023-05-10T16:04:30.836Z,99694.81
2023-05-10T16:06:57.121Z,99692.75
2023-05-10T16:09:23.420Z,99692.72
2023-05-10T16:11:49.788Z,99698.28
2023-05-10T16:14:16.330Z,99709.59
2023-05-10T16:16:43.412Z,99698.31
2023-05-10T16:19:09.823Z,99712.72
2023-05-10T16:21:36.318Z,99710.47
2023-05-10T16:24:03.231Z,99714.03
2023-05-10T16:26:29.561Z,99714.50
2023-05-10T16:28:55.961Z,99708.56
2023-05-10T16:31:22.465Z,99709.56
2023-05-10T16:33:49.887Z,99711.09
2023-05-10T16:36:16.184Z,99700.09
2023-05-10T16:38:42.515Z,99723.53
2023-05-10T16:41:08.768Z,99713.44
2023-05-10T16:43:35.726Z,99677.94
2023-05-10T16:46:02.384Z,99709.34
2023-05-10T16:48:28.734Z,99717.06
2023-05-10T16:50:55.056Z,99714.81
2023-05-10T16:53:21.520Z,99718.13
2023-05-10T16:55:47.927Z,99711.91
2023-05-10T16:58:14.282Z,99711.81
2023-05-10T17:00:40.733Z,99702.69
2023-05-10T17:03:07.687Z,99717.31
2023-05-10T17:05:34.060Z,99718.66
2023-05-10T17:08:00.829Z,99722.00
2023-05-10T17:10:27.200Z,99717.88
2023-05-10T17:12:53.668Z,99723.88
2023-05-10T17:15:20.641Z,99709.31
2023-05-10T17:17:47.723Z,99722.06
2023-05-10T17:20:14.067Z,99727.19
2023-05-10T17:22:40.430Z,99723.13
2023-05-10T17:25:07.076Z,99727.75
2023-05-10T17:27:33.543Z,99732.16
2023-05-10T17:29:59.850Z,99728.03
2023-05-10T17:32:26.344Z,99725.88
2023-05-10T17:34:52.854Z,99736.78
2023-05-10T17:37:19.312Z,99732.09
2023-05-10T17:39:45.612Z,99730.03
2023-05-10T17:42:12.629Z,99739.41
2023-05-10T17:44:38.987Z,99732.81
2023-05-10T17:47:06.267Z,99739.91
2023-05-10T17:49:32.634Z,99712.78
2023-05-10T17:51:58.921Z,99728.50
2023-05-10T17:54:25.251Z,99735.47
2023-05-10T17:56:51.631Z,99741.81
2023-05-10T17:59:18.102Z,99735.00
2023-05-10T18:01:44.516Z,99740.53
2023-05-10T18:04:10.949Z,99748.03
2023-05-10T18:06:37.587Z,99741.91
2023-05-10T18:09:07.074Z,99737.59
2023-05-10T18:11:34.952Z,99737.19
2023-05-10T18:14:01.272Z,99734.53
2023-05-10T18:16:27.605Z,99723.50
2023-05-10T18:18:53.969Z,99738.63
2023-05-10T18:21:20.349Z,99742.75
2023-05-10T18:23:46.901Z,99742.13
2023-05-10T18:26:13.471Z,99745.16
2023-05-10T18:28:39.778Z,99745.53
2023-05-10T18:31:06.097Z,99724.16
2023-05-10T18:33:32.431Z,99747.91
2023-05-10T18:35:58.757Z,99750.94
2023-05-10T18:38:25.310Z,99743.06
2023-05-10T18:40:51.628Z,99747.84
2023-05-10T18:43:18.120Z,99748.13
2023-05-10T18:45:44.370Z,99742.38
2023-05-10T18:48:10.743Z,99754.47
2023-05-10T18:50:37.131Z,99748.50
2023-05-10T18:53:03.458Z,99746.28
2023-05-10T18:55:29.849Z,99760.09
2023-05-10T18:57:56.189Z,99755.16
2023-05-10T19:00:22.604Z,99756.56
2023-05-10T19:02:48.908Z,99762.94
2023-05-10T19:05:15.986Z,99765.38
2023-05-10T19:07:43.854Z,99772.00
2023-05-10T19:10:12.683Z,99769.88
2023-05-10T19:12:41.175Z,99775.66
2023-05-10T19:15:08.332Z,99776.94
2023-05-10T19:17:36.752Z,99778.22
2023-05-10T19:20:04.540Z,99771.31
2023-05-10T19:25:00.283Z,99778.88
2023-05-10T19:27:26.650Z,99777.38
2023-05-10T19:29:52.970Z,99775.28
2023-05-10T19:32:19.295Z,99786.81
2023-05-10T19:34:45.613Z,99787.25
2023-05-10T19:37:12.065Z,99788.41
2023-05-10T19:39:38.353Z,99778.59
2023-05-10T19:42:05.376Z,99793.13
2023-05-10T19:44:31.828Z,99781.59
2023-05-10T19:46:58.860Z,99803.19
2023-05-10T19:49:25.304Z,99797.56
2023-05-10T19:51:51.603Z,99790.94
2023-05-10T19:54:17.937Z,99794.75
2023-05-10T19:56:44.233Z,99789.72
2023-05-10T19:59:10.631Z,99804.13
2023-05-10T20:01:37.201Z,99806.25
2023-05-10T20:04:03.692Z,99814.59
2023-05-10T20:06:30.074Z,99803.41
2023-05-10T20:08:56.360Z,99808.75
2023-05-10T20:11:22.690Z,99814.41
2023-05-10T20:13:49.013Z,99808.84
2023-05-10T20:16:15.313Z,99802.13
2023-05-10T20:18:41.828Z,99811.09
2023-05-10T20:21:08.167Z,99813.56
2023-05-10T20:23:34.459Z,99808.72
2023-05-10T20:26:00.763Z,99818.16
2023-05-10T20:28:28.216Z,99814.41
2023-05-10T20:30:55.691Z,99822.25
2023-05-10T20:33:22.628Z,99823.03
2023-05-10T20:35:50.139Z,99824.91
2023-05-10T20:38:17.984Z,99818.88
2023-05-10T20:40:44.724Z,99826.91
2023-05-10T20:43:10.992Z,99831.28
2023-05-10T20:45:37.861Z,99831.28
2023-05-10T20:48:04.852Z,99828.91
2023-05-10T20:50:31.233Z,99821.06
2023-05-10T20:52:57.598Z,99826.41
2023-05-10T20:55:23.874Z,99818.75
2023-05-10T20:57:51.371Z,99827.78
2023-05-10T21:00:18.176Z,99830.72
2023-05-10T21:02:45.916Z,99828.06
2023-05-10T21:05:12.372Z,99831.88
2023-05-10T21:07:39.372Z,99820.88
2023-05-10T21:10:10.342Z,99829.97
2023-05-10T21:12:37.110Z,99835.28
2023-05-10T21:15:04.085Z,99839.84
2023-05-10T21:17:30.837Z,99837.38
2023-05-10T21:19:57.310Z,99839.25
2023-05-10T21:22:23.650Z,99835.66
2023-05-10T21:24:49.993Z,99833.94
2023-05-10T21:27:16.502Z,99834.84
2023-05-10T21:29:42.841Z,99836.03
2023-05-10T21:32:09.523Z,99829.00
2023-05-10T21:34:36.027Z,99827.13
2023-05-10T21:37:02.359Z,99829.69
2023-05-10T21:39:28.645Z,99834.22
2023-05-10T21:41:54.957Z,99830.97
2023-05-10T21:44:21.268Z,99837.16
2023-05-10T21:46:47.708Z,99837.38
2023-05-10T21:49:14.034Z,99843.66
2023-05-10T21:51:40.327Z,99829.72
2023-05-10T21:54:06.760Z,99832.41
2023-05-10T21:56:33.042Z,99833.25
2023-05-10T21:58:59.329Z,99834.44
2023-05-10T22:01:27.224Z,99837.16
2023-05-10T22:03:53.555Z,99833.63
2023-05-10T22:06:19.899Z,99834.56
2023-05-10T22:08:46.180Z,99832.91
2023-05-10T22:11:12.510Z,99835.84
2023-05-10T22:13:38.809Z,99822.22
2023-05-10T22:16:05.166Z,99838.66
2023-05-10T22:18:31.451Z,99837.78
2023-05-10T22:20:57.789Z,99832.44
2023-05-10T22:23:24.157Z,99836.13
2023-05-10T22:25:50.454Z,99836.28
2023-05-10T22:28:16.746Z,99840.66
2023-05-10T22:30:43.460Z,99844.59
2023-05-10T22:33:09.880Z,99846.53
2023-05-10T22:35:36.220Z,99847.47
2023-05-10T22:38:02.515Z,99841.34
2023-05-10T22:40:28.819Z,99850.13
2023-05-10T22:42:55.297Z,99837.88
2023-05-10T22:45:21.604Z,99840.88
2023-05-10T22:47:48.118Z,99848.81
2023-05-10T22:50:14.473Z,99840.81
2023-05-10T22:52:40.830Z,99847.09
2023-05-10T22:55:07.515Z,99837.69
2023-05-10T22:57:34.240Z,99832.34
2023-05-10T23:00:00.759Z,99846.47
2023-05-10T23:02:27.169Z,99845.75
2023-05-10T23:04:53.564Z,99849.50
2023-05-10T23:07:19.895Z,99854.06
2023-05-10T23:09:46.183Z,99847.94
2023-05-10T23:12:12.499Z,99850.56
2023-05-10T23:14:38.776Z,99835.03
2023-05-10T23:17:05.357Z,99852.41
2023-05-10T23:19:31.622Z,99851.47
2023-05-10T23:21:59.250Z,99852.47
2023-05-10T23:24:26.197Z,99858.66
2023-05-10T23:26:52.476Z,99856.94
2023-05-10T23:29:18.881Z,99854.47
2023-05-10T23:31:48.958Z,99852.47
2023-05-10T23:34:15.305Z,99850.63
2023-05-10T23:36:41.579Z,99844.53
2023-05-10T23:39:08.179Z,99855.19
2023-05-10T23:41:34.596Z,99858.88
2023-05-10T23:44:09.803Z,99862.59
2023-05-10T23:46:36.079Z,99862.91
2023-05-10T23:49:02.397Z,99862.22
2023-05-10T23:51:28.661Z,99860.59
2023-05-10T23:53:55.017Z,99860.84
2023-05-10T23:56:22.019Z,99855.69
2023-05-10T23:58:48.407Z,99856.53
